Thunder radar more information blitzortung!


Radar de pluja more information rain snow radar


Visita la nostra xarxa de llocs de meteo:

Template documentation
and downloads

And another site



No particular awareness of the weather is required.    There are no Weather-warnings

Pagina Historial Weather Underground text

Diari Resum May 20, 2017 Unitats:  Mètric    Imperial   Tant
« Previous Dia
SegĂźent Dia »
Diari Setmana Mensual Anual Personalitzada
  Maxima: Minima: Media:
Temperatura: -17.8 °C -11.5 °C -7 °C
Punt de rosada: -17.8 °C -14.8 °C -13.3 °C
Humitat: Humidity % 28 % 51 %
Wind Speed: 0 km/h 0 km/h 10.8 km/h
RĂ fegues de vent: 0 km/h - -
Vent:- - SSE
Pression baro: 0 hPa 34533.8 hPa -
Precipitacions: 0 mm    
Historical Graphs
 
 
Dades de taula per May 20, 2017
Temps Temperatura Punt de rosada Pression baro Vent Wind Speed RĂ fegues de vent Humitat Rainfall Rate (Hourly)
-17.8 °C -17.8 °C 0 hPa Calm     Humidity % 0 mm
00:00 -10.7 °C -13.8 °C 34601.5 hPa Calm   7.7 km/h 69 % 0 mm
00:02 -9.6 °C -13.4 °C 34533.8 hPa NE 3.7 km/h   64 % 0 mm
00:07 -9.6 °C -13.4 °C 34533.8 hPa NNE 3.1 km/h   64 % 0 mm
00:10 -10.8 °C -13.9 °C 34601.5 hPa Calm   7.7 km/h 69 % 0 mm
00:20 -10.9 °C -13.9 °C 34601.5 hPa NNE 2.6 km/h 5.1 km/h 69 % 0 mm
00:30 -11 °C -14.1 °C 34601.5 hPa NNE 2.6 km/h 2.6 km/h 69 % 0 mm
00:40 -11.1 °C -14.1 °C 34601.5 hPa Calm     69 % 0 mm
00:50 -11.1 °C -14.1 °C 34601.5 hPa NNE 2.6 km/h 5.1 km/h 70 % 0 mm
01:00 -11.2 °C -14.2 °C 34601.5 hPa Calm     70 % 0 mm
01:10 -11.3 °C -14.2 °C 34601.5 hPa Calm   2.6 km/h 70 % 0 mm
01:20 -11.3 °C -14.3 °C 34601.5 hPa Calm   5.1 km/h 70 % 0 mm
01:30 -11.4 °C -14.3 °C 34601.5 hPa Calm   2.6 km/h 70 % 0 mm
01:50 -11.5 °C -14.4 °C 34601.5 hPa NE 2.6 km/h 2.6 km/h 70 % 0 mm
02:00 -11.3 °C -14.2 °C 34601.5 hPa Calm   2.6 km/h 71 % 0 mm
02:10 -11.1 °C -13.9 °C 34635.4 hPa Calm   5.1 km/h 71 % 0 mm
02:20 -10.8 °C -13.6 °C 34635.4 hPa Calm   2.6 km/h 71 % 0 mm
02:30 -10.6 °C -13.7 °C 34635.4 hPa East 2.6 km/h 5.1 km/h 69 % 0 mm
02:40 -10.5 °C -13.6 °C 34635.4 hPa Calm   2.6 km/h 69 % 0 mm
02:50 -10.4 °C -13.7 °C 34635.4 hPa ESE 2.6 km/h 7.7 km/h 68 % 0 mm
03:00 -10.3 °C -13.5 °C 34635.4 hPa East 2.6 km/h 5.1 km/h 68 % 0 mm
03:10 -10.2 °C -13.4 °C 34635.4 hPa East 5.1 km/h 7.7 km/h 68 % 0 mm
03:20 -10.1 °C -13.4 °C 34635.4 hPa ENE 5.1 km/h 7.7 km/h 67 % 0 mm
03:30 -9.9 °C -13.4 °C 34669.3 hPa NE 5.1 km/h 7.7 km/h 66 % 0 mm
03:40 -9.7 °C -13.2 °C 34669.3 hPa NE 2.6 km/h 7.7 km/h 66 % 0 mm
03:50 -9.4 °C -13.2 °C 34669.3 hPa NE 7.7 km/h 7.7 km/h 64 % 0 mm
04:00 -9.4 °C -13.1 °C 34669.3 hPa ENE 2.6 km/h 7.7 km/h 65 % 0 mm
04:10 -9 °C -12.8 °C 34669.3 hPa ENE 2.6 km/h 7.7 km/h 64 % 0 mm
04:20 -9 °C -12.9 °C 34669.3 hPa ENE 5.1 km/h 5.1 km/h 63 % 0 mm
04:30 -8.6 °C -12.8 °C 34669.3 hPa SE 5.1 km/h 7.7 km/h 61 % 0 mm
04:40 -8.6 °C -12.9 °C 34669.3 hPa SSW 2.6 km/h 5.1 km/h 60 % 0 mm
04:50 -8.5 °C -12.8 °C 34669.3 hPa SW 5.1 km/h 10.3 km/h 60 % 0 mm
05:00 -8.3 °C -13.2 °C 34669.3 hPa SW 7.7 km/h 7.7 km/h 56 % 0 mm
05:10 -7.6 °C -12.6 °C 34669.3 hPa South 2.6 km/h 7.7 km/h 56 % 0 mm
05:20 -7.5 °C -12.9 °C 34669.3 hPa South 2.6 km/h 10.3 km/h 53 % 0 mm
05:30 -7.3 °C -12.8 °C 34669.3 hPa SSE 5.1 km/h 10.3 km/h 53 % 0 mm
10:30 -7.4 °C -13 °C 34669.3 hPa WSW 6 km/h 8 km/h 52 % 0 mm
10:35 -7.4 °C -13.2 °C 34669.3 hPa East 6 km/h 6 km/h 51 % 0 mm
10:40 -7.3 °C -13 °C 34669.3 hPa ENE 7.6 km/h 7.6 km/h 51 % 0 mm
10:45 -7.1 °C -13.4 °C 34669.3 hPa SSE 6 km/h 6 km/h 48 % 0 mm
10:50 -6.9 °C -13.1 °C 34669.3 hPa West 23.3 km/h 23.3 km/h 49 % 0 mm
10:55 -7.1 °C -13.2 °C 34669.3 hPa SW 23.8 km/h 23.8 km/h 49 % 0 mm
11:00 -6.8 °C -13.1 °C 34669.3 hPa SSW 11.9 km/h 11.9 km/h 48 % 0 mm
11:05 -6.5 °C -13 °C 34669.3 hPa South 12.2 km/h 12.2 km/h 47 % 0 mm
11:10 -6.4 °C -13.3 °C 34669.3 hPa SW 11.9 km/h 11.9 km/h 45 % 0 mm
11:15 -6.2 °C -12.9 °C 34669.3 hPa WSW 11.9 km/h 11.9 km/h 46 % 0 mm
11:20 -6.2 °C -13.1 °C 34669.3 hPa East 15 km/h 15 km/h 45 % 0 mm
11:25 -6.2 °C -13.1 °C 34669.3 hPa WSW 17.9 km/h 17.9 km/h 45 % 0 mm
11:30 -6 °C -13.1 °C 34669.3 hPa SSE 15 km/h 15 km/h 44 % 0 mm
11:35 -6.2 °C -13.3 °C 34669.3 hPa SSW 20.9 km/h 20.9 km/h 44 % 0 mm
11:40 -6.2 °C -13.4 °C 34669.3 hPa WSW 23.8 km/h 23.8 km/h 43 % 0 mm
11:45 -6.1 °C -13.6 °C 34669.3 hPa SW 6 km/h 6 km/h 42 % 0 mm
11:50 -5.8 °C -13.3 °C 34669.3 hPa SSE 15 km/h 15 km/h 42 % 0 mm
11:55 -5.4 °C -12.9 °C 34669.3 hPa South 9 km/h 9 km/h 42 % 0 mm
12:00 -5.6 °C -13.1 °C 34669.3 hPa SSE 11.9 km/h 11.9 km/h 42 % 0 mm
12:01 -5.6 °C -13.3 °C 34669.3 hPa SE 25.4 km/h 25.4 km/h 41 % 0 mm
12:06 -5.5 °C -13.2 °C 34669.3 hPa SW 9.8 km/h 9.8 km/h 41 % 0 mm
12:11 -5.4 °C -13.2 °C 34635.4 hPa WSW 15 km/h 15 km/h 41 % 0 mm
12:16 -5.4 °C -13.1 °C 34635.4 hPa SSE 15 km/h 15 km/h 41 % 0 mm
12:21 -5.3 °C -13 °C 34635.4 hPa West 15 km/h 15 km/h 41 % 0 mm
12:26 -5.2 °C -13.2 °C 34635.4 hPa SW 20.9 km/h 20.9 km/h 40 % 0 mm
12:31 -5.4 °C -13.6 °C 34635.4 hPa WSW 11.9 km/h 11.9 km/h 39 % 0 mm
12:36 -5.3 °C -13.4 °C 34635.4 hPa WSW 12.7 km/h 12.7 km/h 39 % 0 mm
12:41 -5.1 °C -13.2 °C 34635.4 hPa SW 11.9 km/h 11.9 km/h 39 % 0 mm
12:46 -4.9 °C -13.3 °C 34635.4 hPa SW 9 km/h 9 km/h 38 % 0 mm
12:51 -5.1 °C -13.4 °C 34635.4 hPa WSW 15 km/h 15 km/h 38 % 0 mm
12:56 -5.1 °C -13.5 °C 34635.4 hPa SSE 23.8 km/h 23.8 km/h 38 % 0 mm
13:01 -5.3 °C -13.7 °C 34635.4 hPa ESE 9 km/h 9 km/h 38 % 0 mm
13:06 -5.4 °C -14 °C 34635.4 hPa ENE 9 km/h 9 km/h 37 % 0 mm
13:11 -5.1 °C -13.4 °C 34635.4 hPa SW 8 km/h 8 km/h 38 % 0 mm
13:16 -4.6 °C -13.4 °C 34635.4 hPa SE 11.9 km/h 11.9 km/h 36 % 0 mm
13:21 -4.4 °C -13.3 °C 34635.4 hPa West 14 km/h 14 km/h 36 % 0 mm
13:26 -4.7 °C -13.8 °C 34601.5 hPa SSW 11.9 km/h 11.9 km/h 35 % 0 mm
13:31 -4.2 °C -13.4 °C 34601.5 hPa SE 6 km/h 6 km/h 35 % 0 mm
13:36 -3.9 °C -13.1 °C 34601.5 hPa SSW 15.6 km/h 15.6 km/h 35 % 0 mm
13:41 -3.9 °C -13.1 °C 34601.5 hPa South 15 km/h 15 km/h 35 % 0 mm
13:46 -4 °C -13.4 °C 34601.5 hPa West 15.3 km/h 15.3 km/h 34 % 0 mm
13:51 -4.1 °C -13.7 °C 34601.5 hPa North 11.9 km/h 11.9 km/h 33 % 0 mm
13:56 -4 °C -13.7 °C 34601.5 hPa North 11.9 km/h 11.9 km/h 33 % 0 mm
14:01 -4.3 °C -13.9 °C 34601.5 hPa West 20.9 km/h 20.9 km/h 33 % 0 mm
14:06 -4 °C -13.9 °C 34601.5 hPa SW 9 km/h 9 km/h 32 % 0 mm
14:11 -4.2 °C -14.1 °C 34601.5 hPa SSE 15 km/h 15 km/h 32 % 0 mm
14:16 -3.8 °C -13.9 °C 34601.5 hPa SW 9.3 km/h 9.3 km/h 31 % 0 mm
14:21 -3.9 °C -14.1 °C 34601.5 hPa SW 15 km/h 15 km/h 31 % 0 mm
14:26 -3.6 °C -13.8 °C 34601.5 hPa SSW 6 km/h 6 km/h 31 % 0 mm
14:31 -3.5 °C -14 °C 34601.5 hPa SW 25.1 km/h 25.1 km/h 30 % 0 mm
14:36 -3.6 °C -14.3 °C 34601.5 hPa SW 15 km/h 15 km/h 29 % 0 mm
14:41 -3.6 °C -14.1 °C 34601.5 hPa West 11.9 km/h 11.9 km/h 30 % 0 mm
14:46 -3.7 °C -14.4 °C 34601.5 hPa SW 23.8 km/h 23.8 km/h 29 % 0 mm
14:47 -3.7 °C -14.4 °C 34601.5 hPa WNW 17.9 km/h 17.9 km/h 29 % 0 mm
14:52 -3.9 °C -14.6 °C 34601.5 hPa WSW 9 km/h 9 km/h 29 % 0 mm
14:57 -3.8 °C -14.8 °C 34601.5 hPa WNW 15 km/h 15 km/h 28 % 0 mm
15:02 -3.7 °C -14.4 °C 34601.5 hPa South 15 km/h 15 km/h 29 % 0 mm
15:07 -3.5 °C -14.3 °C 34601.5 hPa WNW 15 km/h 15 km/h 29 % 0 mm
15:12 -3.7 °C -14.4 °C 34601.5 hPa WNW 11.9 km/h 11.9 km/h 29 % 0 mm
15:17 -3.7 °C -14.8 °C 34601.5 hPa WSW 14.5 km/h 14.5 km/h 28 % 0 mm
15:22 -3.6 °C -14.3 °C 34601.5 hPa SSW 9 km/h 9 km/h 29 % 0 mm
15:27 -3.7 °C -14.1 °C 34601.5 hPa SSW 25.9 km/h 25.9 km/h 30 % 0 mm
15:32 -3.8 °C -14.2 °C 34601.5 hPa SSW 15 km/h 15 km/h 30 % 0 mm
15:37 -3.4 °C -13.9 °C 34601.5 hPa ESE 6 km/h 6 km/h 30 % 0 mm
15:42 -3.3 °C -13.5 °C 34601.5 hPa NNW 9 km/h 9 km/h 31 % 0 mm
15:47 -3.3 °C -13.6 °C 34601.5 hPa South 9 km/h 9 km/h 31 % 0 mm
15:52 -3.4 °C -13.7 °C 34601.5 hPa South 20.9 km/h 20.9 km/h 31 % 0 mm
15:57 -3.4 °C -13.7 °C 34601.5 hPa NE 17.9 km/h 17.9 km/h 31 % 0 mm
16:02 -3.5 °C -13.7 °C 34601.5 hPa WSW 15.3 km/h 15.3 km/h 31 % 0 mm
16:07 -3.6 °C -14.1 °C 34601.5 hPa SW 20.9 km/h 20.9 km/h 30 % 0 mm
16:12 -3.4 °C -13.7 °C 34601.5 hPa SW 15 km/h 15 km/h 31 % 0 mm
16:17 -3.5 °C -14 °C 34601.5 hPa SW 20.9 km/h 20.9 km/h 30 % 0 mm
16:22 -3.5 °C -13.7 °C 34601.5 hPa South 20.9 km/h 20.9 km/h 31 % 0 mm
16:27 -3.4 °C -13.9 °C 34601.5 hPa SW 15 km/h 15 km/h 30 % 0 mm
16:32 -3.6 °C -14.1 °C 34601.5 hPa SW 15 km/h 15 km/h 30 % 0 mm
16:37 -3.7 °C -14.1 °C 34601.5 hPa SSW 20.9 km/h 20.9 km/h 30 % 0 mm
16:42 -3.7 °C -14.1 °C 34601.5 hPa West 11.9 km/h 11.9 km/h 30 % 0 mm
16:47 -3.7 °C -14.1 °C 34601.5 hPa SSW 11.9 km/h 11.9 km/h 30 % 0 mm
16:52 -3.6 °C -14.1 °C 34601.5 hPa WSW 15 km/h 15 km/h 30 % 0 mm
16:57 -3.7 °C -14.1 °C 34601.5 hPa WSW 15 km/h 15 km/h 30 % 0 mm
17:02 -3.4 °C -13.7 °C 34601.5 hPa SSW 11.9 km/h 11.9 km/h 31 % 0 mm
17:07 -3.3 °C -13.8 °C 34567.7 hPa South 12.7 km/h 12.7 km/h 30 % 0 mm
17:12 -3.5 °C -13.7 °C 34567.7 hPa SSW 15 km/h 15 km/h 31 % 0 mm
17:17 -3.8 °C -13.9 °C 34567.7 hPa South 15 km/h 15 km/h 31 % 0 mm
17:22 -3.8 °C -13.9 °C 34601.5 hPa WSW 15 km/h 15 km/h 31 % 0 mm
17:27 -3.9 °C -14.1 °C 34601.5 hPa SW 20.9 km/h 20.9 km/h 31 % 0 mm
17:32 -4.3 °C -14.1 °C 34601.5 hPa SW 29.8 km/h 29.8 km/h 32 % 0 mm
17:37 -4.3 °C -13.9 °C 34567.7 hPa SW 23.8 km/h 23.8 km/h 33 % 0 mm
17:42 -4.3 °C -13.9 °C 34567.7 hPa SW 11.9 km/h 11.9 km/h 33 % 0 mm
17:47 -4.2 °C -13.8 °C 34567.7 hPa WSW 15 km/h 15 km/h 33 % 0 mm
17:52 -4.4 °C -14.1 °C 34601.5 hPa SW 20.9 km/h 20.9 km/h 33 % 0 mm
17:57 -4.5 °C -13.8 °C 34601.5 hPa West 26.9 km/h 26.9 km/h 34 % 0 mm
18:03 -4.5 °C -13.6 °C 34601.5 hPa South 20.9 km/h 20.9 km/h 35 % 0 mm
18:08 -4.7 °C -13.8 °C 34601.5 hPa SSW 20.9 km/h 20.9 km/h 35 % 0 mm
18:13 -4.8 °C -13.7 °C 34601.5 hPa SW 9 km/h 9 km/h 36 % 0 mm
18:18 -4.8 °C -13.6 °C 34601.5 hPa SSE 15 km/h 15 km/h 36 % 0 mm
18:23 -4.9 °C -13.5 °C 34601.5 hPa SW 20.9 km/h 20.9 km/h 37 % 0 mm
18:28 -5.2 °C -13.5 °C 34601.5 hPa WSW 15 km/h 15 km/h 38 % 0 mm
18:33 -5.2 °C -13.5 °C 34601.5 hPa SSE 20.9 km/h 20.9 km/h 38 % 0 mm
18:38 -5.2 °C -13.6 °C 34601.5 hPa SSW 15 km/h 15 km/h 38 % 0 mm
18:43 -5.1 °C -13.3 °C 34601.5 hPa SW 9 km/h 9 km/h 39 % 0 mm
18:48 -5.2 °C -13.4 °C 34601.5 hPa WSW 11.9 km/h 11.9 km/h 39 % 0 mm
18:53 -5.3 °C -13.4 °C 34601.5 hPa West 19.6 km/h 19.6 km/h 39 % 0 mm
18:58 -5.5 °C -13.6 °C 34601.5 hPa SW 20.9 km/h 20.9 km/h 39 % 0 mm
19:03 -5.4 °C -13.6 °C 34601.5 hPa West 6.3 km/h 6.3 km/h 39 % 0 mm
19:08 -5.6 °C -13.4 °C 34601.5 hPa SSE 12.7 km/h 12.7 km/h 40 % 0 mm
19:13 -5.8 °C -13.7 °C 34601.5 hPa SSE 9 km/h 9 km/h 40 % 0 mm
19:18 -5.8 °C -13.7 °C 34601.5 hPa SW 6.3 km/h 6.3 km/h 40 % 0 mm
19:20 -9.3 °C -12.2 °C 34740.4 hPa NE 5.1 km/h 7.7 km/h 71 % 0 mm
19:23 -5.7 °C -13.6 °C 34601.5 hPa South 6 km/h 6 km/h 40 % 0 mm
19:28 -5.8 °C -13.7 °C 34601.5 hPa SSE 11.9 km/h 11.9 km/h 40 % 0 mm
19:30 -9.3 °C -12.1 °C 34740.4 hPa ENE 5.1 km/h 5.1 km/h 72 % 0 mm
19:33 -6 °C -13.8 °C 34601.5 hPa ESE 11.9 km/h 11.9 km/h 40 % 0 mm
19:38 -6 °C -13.7 °C 34635.4 hPa WSW 6 km/h 6 km/h 41 % 0 mm
19:40 -9.3 °C -12.2 °C 34740.4 hPa ENE 2.6 km/h 5.1 km/h 71 % 0 mm
19:43 -6.3 °C -13.3 °C 34635.4 hPa SE 11.9 km/h 11.9 km/h 44 % 0 mm
19:48 -6.6 °C -13.3 °C 34635.4 hPa ESE 15 km/h 15 km/h 46 % 0 mm
19:50 -9.4 °C -12.2 °C 34740.4 hPa Calm   5.1 km/h 72 % 0 mm
19:53 -6.7 °C -12.9 °C 34635.4 hPa ESE 16.6 km/h 16.6 km/h 48 % 0 mm
19:58 -6.7 °C -12.8 °C 34635.4 hPa ENE 20.9 km/h 20.9 km/h 49 % 0 mm
20:00 -9.4 °C -12.2 °C 34740.4 hPa Calm   7.7 km/h 72 % 0 mm
20:03 -7 °C -12.9 °C 34635.4 hPa ENE 15 km/h 15 km/h 50 % 0 mm
20:08 -7 °C -12.8 °C 34635.4 hPa ESE 15 km/h 15 km/h 51 % 0 mm
20:10 -9.4 °C -12.2 °C 34740.4 hPa ESE 2.6 km/h 5.1 km/h 72 % 0 mm
20:13 -7.1 °C -12.9 °C 34635.4 hPa SE 15 km/h 15 km/h 51 % 0 mm
20:18 -7.2 °C -12.9 °C 34635.4 hPa ESE 20.9 km/h 20.9 km/h 51 % 0 mm
20:20 -9.5 °C -12.3 °C 34740.4 hPa ENE 2.6 km/h 2.6 km/h 72 % 0 mm
20:23 -7.2 °C -13 °C 34635.4 hPa East 20.9 km/h 20.9 km/h 51 % 0 mm
20:28 -7.3 °C -12.9 °C 34635.4 hPa ESE 23.8 km/h 23.8 km/h 52 % 0 mm
20:30 -9.6 °C -12.3 °C 34740.4 hPa Calm   5.1 km/h 72 % 0 mm
20:33 -7.4 °C -13 °C 34635.4 hPa ENE 15 km/h 15 km/h 52 % 0 mm
20:38 -7.4 °C -13 °C 34635.4 hPa ESE 17.9 km/h 17.9 km/h 52 % 0 mm
20:40 -9.6 °C -12.3 °C 34740.4 hPa Calm   5.1 km/h 73 % 0 mm
20:43 -7.5 °C -12.9 °C 34635.4 hPa ENE 17.9 km/h 17.9 km/h 53 % 0 mm
20:48 -7.6 °C -12.9 °C 34635.4 hPa East 17.9 km/h 17.9 km/h 53 % 0 mm
20:50 -9.6 °C -12.4 °C 34740.4 hPa Calm     72 % 0 mm
20:54 -7.7 °C -13.1 °C 34669.3 hPa East 15 km/h 15 km/h 53 % 0 mm
20:58 -7.7 °C -13.1 °C 34669.3 hPa NNE 15 km/h 15 km/h 53 % 0 mm
21:00 -9.7 °C -12.3 °C 34740.4 hPa Calm     73 % 0 mm
21:03 -7.7 °C -13.1 °C 34669.3 hPa ESE 15 km/h 15 km/h 53 % 0 mm
21:08 -7.8 °C -13 °C 34635.4 hPa ENE 14.5 km/h 14.5 km/h 54 % 0 mm
21:10 -9.7 °C -12.3 °C 34740.4 hPa Calm     73 % 0 mm
21:13 -7.9 °C -13 °C 34635.4 hPa ESE 11.9 km/h 11.9 km/h 55 % 0 mm
21:18 -7.9 °C -13 °C 34635.4 hPa NE 15 km/h 15.6 km/h 55 % 0 mm
21:20 -9.7 °C -12.4 °C 34740.4 hPa Calm     73 % 0 mm
21:23 -8 °C -13.1 °C 34669.3 hPa East 15 km/h 15 km/h 55 % 0 mm
21:28 -8 °C -12.9 °C 34669.3 hPa NNE 11.9 km/h 11.9 km/h 56 % 0 mm
21:30 -9.8 °C -12.4 °C 34740.4 hPa Calm   2.6 km/h 73 % 0 mm
21:33 -8.1 °C -13 °C 34669.3 hPa ESE 23.8 km/h 23.8 km/h 56 % 0 mm
21:38 -8.1 °C -13.1 °C 34669.3 hPa East 15 km/h 15 km/h 56 % 0 mm
21:40 -9.8 °C -12.5 °C 34740.4 hPa Calm     73 % 0 mm
21:43 -8.2 °C -13.1 °C 34669.3 hPa ENE 17.9 km/h 17.9 km/h 56 % 0 mm
21:48 -8.2 °C -13.1 °C 34669.3 hPa NE 15 km/h 15 km/h 56 % 0 mm
21:50 -9.9 °C -12.4 °C 34740.4 hPa Calm   2.6 km/h 74 % 0 mm
21:53 -8.2 °C -13 °C 34669.3 hPa ENE 20.9 km/h 20.9 km/h 57 % 0 mm
21:58 -8.3 °C -13.1 °C 34669.3 hPa ESE 15 km/h 15 km/h 57 % 0 mm
22:00 -10 °C -12.6 °C 34703.1 hPa Calm     74 % 0 mm
22:03 -8.3 °C -12.9 °C 34669.3 hPa SSE 11.9 km/h 11.9 km/h 58 % 0 mm
22:08 -8.3 °C -12.8 °C 34669.3 hPa ESE 12.7 km/h 12.7 km/h 59 % 0 mm
22:10 -10.1 °C -12.7 °C 34703.1 hPa Calm     74 % 0 mm
22:13 -8.4 °C -12.6 °C 34669.3 hPa ESE 9 km/h 9 km/h 61 % 0 mm
22:18 -8.4 °C -12.7 °C 34669.3 hPa NNE 9 km/h 9 km/h 61 % 0 mm
22:20 -10.2 °C -12.7 °C 34703.1 hPa Calm     75 % 0 mm
22:23 -8.6 °C -12.6 °C 34669.3 hPa ENE 9.3 km/h 9.3 km/h 62 % 0 mm
22:28 -8.6 °C -12.5 °C 34669.3 hPa ESE 15 km/h 15 km/h 63 % 0 mm
22:30 -10.3 °C -12.7 °C 34703.1 hPa Calm     75 % 0 mm
22:33 -8.6 °C -12.3 °C 34669.3 hPa ESE 15 km/h 15 km/h 65 % 0 mm
22:38 -8.7 °C -12.2 °C 34635.4 hPa ENE 15 km/h 15 km/h 66 % 0 mm
22:40 -10.4 °C -12.8 °C 34703.1 hPa Calm     75 % 0 mm
22:43 -8.7 °C -12.3 °C 34635.4 hPa East 9 km/h 9 km/h 66 % 0 mm
22:48 -8.7 °C -12.1 °C 34635.4 hPa East 15 km/h 15 km/h 67 % 0 mm
22:50 -10.4 °C -12.7 °C 34703.1 hPa Calm   2.6 km/h 76 % 0 mm
22:53 -8.7 °C -12 °C 34669.3 hPa ENE 9.8 km/h 9.8 km/h 68 % 0 mm
22:58 -8.8 °C -12.1 °C 34669.3 hPa NE 11.9 km/h 11.9 km/h 68 % 0 mm
23:00 -10.5 °C -12.8 °C 34703.1 hPa Calm   2.6 km/h 76 % 0 mm
23:03 -8.8 °C -12.1 °C 34669.3 hPa ENE 15 km/h 15 km/h 68 % 0 mm
23:08 -8.8 °C -12 °C 34703.1 hPa ENE 8.5 km/h 8.5 km/h 69 % 0 mm
23:10 -10.6 °C -12.7 °C 34703.1 hPa Calm     77 % 0 mm
23:13 -8.8 °C -12 °C 34703.1 hPa East 9.3 km/h 9.3 km/h 69 % 0 mm
23:18 -8.9 °C -12.1 °C 34703.1 hPa ESE 9.3 km/h 9.3 km/h 69 % 0 mm
23:20 -10.7 °C -12.8 °C 34703.1 hPa Calm     77 % 0 mm
23:23 -8.9 °C -11.9 °C 34703.1 hPa ESE 11.9 km/h 11.9 km/h 70 % 0 mm
23:28 -8.9 °C -12 °C 34703.1 hPa East 6 km/h 6.8 km/h 70 % 0 mm
23:30 -10.8 °C -12.9 °C 34703.1 hPa Calm   2.6 km/h 77 % 0 mm
23:33 -8.9 °C -12 °C 34703.1 hPa ENE 9 km/h 9 km/h 70 % 0 mm
23:38 -8.9 °C -11.8 °C 34740.4 hPa ENE 9 km/h 9 km/h 72 % 0 mm
23:40 -10.8 °C -12.8 °C 34703.1 hPa Calm     78 % 0 mm
23:43 -9 °C -11.9 °C 34740.4 hPa NE 10.3 km/h 10.3 km/h 71 % 0 mm
23:44 -9 °C -11.9 °C 34740.4 hPa ENE 11.9 km/h 11.9 km/h 71 % 0 mm
23:49 -9.1 °C -12 °C 34740.4 hPa East 11.9 km/h 11.9 km/h 71 % 0 mm
23:50 -10.8 °C -12.9 °C 34703.1 hPa Calm     78 % 0 mm
23:54 -9.1 °C -12.1 °C 34740.4 hPa ENE 7.6 km/h 7.6 km/h 71 % 0 mm
23:59 -9.1 °C -12.1 °C 34740.4 hPa East 6 km/h 6 km/h 71 % 0 mm
Meteo Sesrovires
Elogis d' Weather Underground - 1.5 mb

Guio original per  Jim McMurry - jmcmurry@mwt.net Adaptat per a la plantilla per  Wim van der Kuil - Leuven-Template.eu

Trobareu la nostra informacio del temps tambe a:

Weather Underground

AWEKAS